Time;durP1;ratioP1;P1;durP2;ratioP2;P2;SDS_P1;SDS_P2;PMS_P1;PMS_P2;Temp;Humidity;BMP_temperature;BMP_pressure;BME280_temperature;BME280_humidity;BME280_pressure;Samples;Min_cycle;Max_cycle;Signal;HPM_P1;HPM_P2
2023/08/16 00:02:12;;;;;;;9.32;6.47;;;17.60;99.90;;;;;;5038603;28;20039;-78
2023/08/16 00:04:38;;;;;;;8.50;7.03;;;17.60;99.90;;;;;;5040609;28;20053;-77
2023/08/16 00:07:04;;;;;;;10.52;6.85;;;17.70;99.90;;;;;;5073822;28;20068;-78
2023/08/16 00:09:29;;;;;;;12.45;7.18;;;17.70;99.90;;;;;;5069383;28;20028;-80
2023/08/16 00:11:55;;;;;;;7.95;6.47;;;17.70;99.90;;;;;;5046113;28;20040;-78
2023/08/16 00:14:22;;;;;;;9.15;6.85;;;17.60;99.90;;;;;;5045490;28;20035;-77
2023/08/16 00:16:48;;;;;;;8.93;6.65;;;17.60;99.90;;;;;;5055136;28;20028;-77
2023/08/16 00:19:14;;;;;;;9.77;6.88;;;17.60;99.90;;;;;;5057862;28;20256;-77
2023/08/16 00:21:40;;;;;;;7.97;6.88;;;17.60;99.90;;;;;;5077693;28;20073;-77
2023/08/16 00:24:07;;;;;;;8.40;6.03;;;17.50;99.90;;;;;;5058536;28;20016;-79
2023/08/16 00:26:32;;;;;;;8.93;5.60;;;17.40;99.90;;;;;;5059357;28;20480;-77
2023/08/16 00:28:59;;;;;;;7.90;5.95;;;17.20;99.90;;;;;;5059915;28;20028;-78
2023/08/16 00:31:24;;;;;;;5.10;4.60;;;17.10;99.90;;;;;;5078375;28;20370;-77
2023/08/16 00:33:50;;;;;;;4.28;3.88;;;16.80;99.90;;;;;;5057442;28;20027;-79
2023/08/16 00:36:16;;;;;;;5.43;4.07;;;16.50;99.90;;;;;;5016079;28;20039;-77
2023/08/16 00:38:44;;;;;;;4.85;4.28;;;16.20;99.90;;;;;;5041287;28;20326;-76
2023/08/16 00:41:11;;;;;;;5.00;4.60;;;16.00;99.90;;;;;;5057574;28;20310;-76
2023/08/16 00:43:37;;;;;;;4.55;4.15;;;15.90;99.90;;;;;;5077809;28;20036;-77
2023/08/16 00:46:04;;;;;;;5.43;4.80;;;15.80;99.90;;;;;;5026807;28;20107;-76
2023/08/16 00:48:32;;;;;;;5.50;4.65;;;15.90;99.90;;;;;;5076543;28;20035;-77
2023/08/16 00:50:59;;;;;;;7.03;4.90;;;16.00;99.90;;;;;;5041833;28;20056;-77
2023/08/16 00:53:27;;;;;;;5.90;4.90;;;15.80;99.90;;;;;;5053957;28;20032;-76
2023/08/16 00:55:53;;;;;;;4.22;3.83;;;15.70;99.90;;;;;;5044402;28;20024;-77
2023/08/16 00:58:18;;;;;;;4.93;4.47;;;15.80;99.90;;;;;;5066737;28;20329;-76
2023/08/16 01:00:44;;;;;;;8.50;4.75;;;15.90;99.90;;;;;;5056302;28;20617;-75
2023/08/16 01:03:10;;;;;;;6.72;4.55;;;15.90;99.90;;;;;;5074246;28;20217;-76
2023/08/16 01:05:36;;;;;;;5.82;4.93;;;16.00;99.90;;;;;;5043494;28;20036;-76
2023/08/16 01:08:02;;;;;;;5.63;4.65;;;16.00;99.90;;;;;;5060521;28;20323;-77
2023/08/16 01:10:42;;;;;;;7.75;6.38;;;16.00;99.90;;;;;;5072653;28;20032;-78
2023/08/16 01:13:21;;;;;;;9.02;6.38;;;16.10;99.90;;;;;;5073956;28;20095;-76
2023/08/16 01:15:49;;;;;;;6.20;5.60;;;16.10;99.90;;;;;;5072314;28;20354;-76
2023/08/16 01:18:15;;;;;;;12.20;6.35;;;16.10;99.90;;;;;;5053627;28;20036;-78
2023/08/16 01:20:44;;;;;;;7.68;5.93;;;16.20;99.90;;;;;;5081768;28;20060;-78
2023/08/16 01:23:21;;;;;;;6.10;5.55;;;16.20;99.90;;;;;;5078503;28;20036;-76
2023/08/16 01:26:01;;;;;;;8.05;6.15;;;16.00;99.90;;;;;;5060070;28;20044;-78
2023/08/16 01:28:28;;;;;;;11.05;6.05;;;16.00;99.90;;;;;;5078268;28;20053;-78
2023/08/16 01:31:03;;;;;;;9.02;5.40;;;15.90;99.90;;;;;;5045496;28;20069;-77
2023/08/16 01:33:29;;;;;;;;;;;15.90;99.90;;;;;;5056703;28;20071;-78
2023/08/16 01:35:54;;;;;;;10.27;7.65;;;16.10;99.90;;;;;;5040540;28;19912;-77
2023/08/16 01:38:20;;;;;;;11.73;8.63;;;16.00;99.90;;;;;;5055809;28;20030;-76
2023/08/16 01:40:52;;;;;;;11.77;8.90;;;16.10;99.90;;;;;;5058862;28;20051;-77
2023/08/16 01:43:19;;;;;;;10.70;8.80;;;16.10;99.90;;;;;;5077028;28;20028;-77
2023/08/16 01:45:47;;;;;;;9.18;8.07;;;16.20;99.90;;;;;;5080545;28;20028;-79
2023/08/16 01:48:14;;;;;;;9.55;8.02;;;16.30;99.90;;;;;;5082276;28;20089;-79
2023/08/16 01:50:40;;;;;;;8.50;7.68;;;16.30;99.90;;;;;;5075637;28;20111;-78
2023/08/16 01:53:07;;;;;;;11.05;7.95;;;16.30;99.90;;;;;;5079060;28;20036;-78
2023/08/16 01:55:32;;;;;;;10.93;8.20;;;16.30;99.90;;;;;;5040484;28;20203;-81
2023/08/16 01:57:59;;;;;;;8.73;7.72;;;16.30;99.90;;;;;;5061648;28;20035;-78
2023/08/16 02:00:25;;;;;;;12.50;7.93;;;16.40;99.90;;;;;;5074662;28;20204;-79
2023/08/16 02:02:50;;;;;;;10.48;8.02;;;16.40;99.90;;;;;;5026574;28;20029;-78
2023/08/16 02:05:16;;;;;;;8.88;7.97;;;16.40;99.90;;;;;;5060947;28;20035;-80
2023/08/16 02:07:42;;;;;;;13.07;8.35;;;16.40;99.90;;;;;;5058046;28;20036;-79
2023/08/16 02:10:07;;;;;;;8.98;7.72;;;16.40;99.90;;;;;;5059005;28;20020;-79
2023/08/16 02:12:33;;;;;;;10.02;7.32;;;16.40;99.90;;;;;;5075736;28;20111;-77
2023/08/16 02:14:59;;;;;;;8.82;7.93;;;16.40;99.90;;;;;;5061772;28;20035;-77
2023/08/16 02:17:25;;;;;;;12.43;8.13;;;16.40;99.90;;;;;;5042941;28;20067;-76
2023/08/16 02:19:50;;;;;;;11.85;7.13;;;16.30;99.90;;;;;;5077518;28;20237;-78
2023/08/16 02:22:16;;;;;;;10.02;7.53;;;16.30;99.90;;;;;;5061990;28;20082;-78
2023/08/16 02:24:42;;;;;;;9.80;6.78;;;16.30;99.90;;;;;;5059383;28;20031;-79
2023/08/16 02:27:08;;;;;;;11.13;6.82;;;16.30;99.90;;;;;;5024062;28;20036;-77
2023/08/16 02:29:33;;;;;;;11.00;6.68;;;16.30;99.90;;;;;;5077439;28;20024;-78
2023/08/16 02:31:59;;;;;;;10.43;7.18;;;16.30;99.90;;;;;;5032056;28;20029;-76
2023/08/16 02:34:24;;;;;;;8.48;7.18;;;16.40;99.90;;;;;;5040001;28;20034;-78
2023/08/16 02:36:50;;;;;;;11.02;8.25;;;16.40;99.90;;;;;;5059064;28;20311;-78
2023/08/16 02:39:17;;;;;;;9.90;7.40;;;16.40;99.90;;;;;;5044229;28;20506;-77
2023/08/16 02:41:43;;;;;;;10.43;6.55;;;16.20;99.90;;;;;;5062084;28;20032;-79
2023/08/16 02:44:08;;;;;;;14.10;7.38;;;16.10;99.90;;;;;;5057258;28;20031;-77
2023/08/16 02:46:34;;;;;;;9.25;6.90;;;16.10;99.90;;;;;;5045385;28;20196;-78
2023/08/16 02:48:59;;;;;;;9.98;7.25;;;16.00;99.90;;;;;;5041597;28;20444;-79
2023/08/16 02:51:25;;;;;;;9.25;7.28;;;16.00;99.90;;;;;;5071126;28;20035;-77
2023/08/16 02:53:51;;;;;;;9.35;7.55;;;15.80;99.90;;;;;;5072902;28;20683;-77
2023/08/16 02:56:17;;;;;;;12.43;7.50;;;15.90;99.90;;;;;;5061650;28;20047;-79
2023/08/16 02:58:42;;;;;;;9.85;8.13;;;15.90;99.90;;;;;;5092171;28;20028;-76
2023/08/16 03:01:08;;;;;;;14.80;8.98;;;16.00;99.90;;;;;;5060704;28;20055;-77
2023/08/16 03:03:34;;;;;;;14.02;9.18;;;16.10;99.90;;;;;;5061205;28;20276;-78
2023/08/16 03:06:00;;;;;;;12.95;8.63;;;16.10;99.90;;;;;;5061247;28;20382;-78
2023/08/16 03:08:26;;;;;;;16.10;8.23;;;16.20;99.90;;;;;;5039062;28;20128;-76
2023/08/16 03:10:51;;;;;;;13.15;8.23;;;16.10;99.90;;;;;;5077768;28;20218;-77
2023/08/16 03:13:17;;;;;;;10.60;7.60;;;16.10;99.90;;;;;;5040862;28;20084;-80
2023/08/16 03:15:43;;;;;;;11.43;8.85;;;16.10;99.90;;;;;;5045876;28;20020;-79
2023/08/16 03:18:08;;;;;;;11.52;7.55;;;16.10;99.90;;;;;;5077529;28;20638;-76
2023/08/16 03:20:34;;;;;;;8.85;7.20;;;16.00;99.90;;;;;;5061172;28;20038;-78
2023/08/16 03:23:00;;;;;;;10.88;8.68;;;16.00;99.90;;;;;;5077159;28;20043;-78
2023/08/16 03:25:26;;;;;;;11.57;8.02;;;16.10;99.90;;;;;;5059787;28;20032;-78
2023/08/16 03:27:51;;;;;;;11.93;8.38;;;16.10;99.90;;;;;;5053223;28;20480;-79
2023/08/16 03:30:17;;;;;;;11.75;9.05;;;16.10;99.90;;;;;;5042985;28;20326;-78
2023/08/16 03:32:43;;;;;;;12.30;8.98;;;16.20;99.90;;;;;;5061233;28;20020;-79
2023/08/16 03:35:09;;;;;;;14.73;8.85;;;16.10;99.90;;;;;;5078012;28;20020;-77
2023/08/16 03:37:34;;;;;;;11.63;7.97;;;16.20;99.90;;;;;;5045592;28;20070;-77
2023/08/16 03:40:00;;;;;;;13.55;9.13;;;16.20;99.90;;;;;;5058658;28;20215;-77
2023/08/16 03:42:25;;;;;;;10.98;7.30;;;16.20;99.90;;;;;;5053059;28;20065;-78
2023/08/16 03:44:51;;;;;;;11.63;7.60;;;16.20;99.90;;;;;;5025931;28;20044;-77
2023/08/16 03:47:17;;;;;;;10.50;8.73;;;16.30;99.90;;;;;;5057104;28;20147;-78
2023/08/16 03:49:44;;;;;;;10.73;8.20;;;16.20;99.90;;;;;;5037121;28;20048;-76
2023/08/16 03:52:10;;;;;;;13.93;8.75;;;16.30;99.90;;;;;;5043255;28;20040;-76
2023/08/16 03:54:35;;;;;;;12.70;9.48;;;16.30;99.90;;;;;;5044118;28;20263;-77
2023/08/16 03:57:02;;;;;;;13.90;9.73;;;16.30;99.90;;;;;;5021597;28;20034;-76
2023/08/16 03:59:27;;;;;;;11.90;9.45;;;16.30;99.90;;;;;;5073413;28;20043;-77
2023/08/16 04:01:53;;;;;;;11.57;8.95;;;16.30;99.90;;;;;;5072608;28;20031;-76
2023/08/16 04:04:19;;;;;;;13.77;9.43;;;16.30;99.90;;;;;;5042117;28;20151;-78
2023/08/16 04:06:44;;;;;;;13.57;9.10;;;16.20;99.90;;;;;;5069995;28;20177;-76
2023/08/16 04:09:10;;;;;;;12.55;8.98;;;16.20;99.90;;;;;;5054610;28;20230;-77
2023/08/16 04:11:36;;;;;;;13.82;8.60;;;16.20;99.90;;;;;;5036518;28;20040;-77
2023/08/16 04:14:02;;;;;;;10.50;8.80;;;16.20;99.90;;;;;;5074955;28;20024;-79
2023/08/16 04:16:27;;;;;;;9.25;8.23;;;16.20;99.90;;;;;;5021905;28;20098;-80
2023/08/16 04:18:54;;;;;;;10.52;7.65;;;16.20;99.90;;;;;;5056187;28;20250;-78
2023/08/16 04:21:20;;;;;;;9.55;7.03;;;16.10;99.90;;;;;;5056662;28;20027;-79
2023/08/16 04:23:46;;;;;;;7.93;6.53;;;16.00;99.90;;;;;;5038731;28;20073;-79
2023/08/16 04:26:12;;;;;;;6.97;6.13;;;16.00;99.90;;;;;;5063466;28;20044;-80
2023/08/16 04:28:37;;;;;;;8.57;6.22;;;15.80;99.90;;;;;;5054551;28;20024;-78
2023/08/16 04:31:04;;;;;;;69.25;7.13;;;15.80;99.90;;;;;;5057896;28;20295;-79
2023/08/16 04:33:30;;;;;;;49.83;6.65;;;15.60;99.90;;;;;;5077563;28;20034;-80
2023/08/16 04:35:56;;;;;;;66.95;8.43;;;15.40;99.90;;;;;;5058357;28;20056;-77
2023/08/16 04:38:22;;;;;;;48.40;7.28;;;15.30;99.90;;;;;;5059587;28;20251;-77
2023/08/16 04:40:51;;;;;;;43.28;7.90;;;15.20;99.90;;;;;;5075061;28;20318;-77
2023/08/16 04:43:18;;;;;;;15.38;6.03;;;15.20;99.90;;;;;;5078477;28;20051;-76
2023/08/16 04:45:44;;;;;;;10.02;5.88;;;15.30;99.90;;;;;;5057937;28;20034;-78
2023/08/16 04:48:10;;;;;;;7.07;5.68;;;15.30;99.90;;;;;;5028127;28;20036;-78
2023/08/16 04:50:36;;;;;;;6.43;5.40;;;15.40;99.90;;;;;;5060648;28;20051;-79
2023/08/16 04:53:02;;;;;;;6.18;5.30;;;15.50;99.90;;;;;;5057314;28;20045;-77
2023/08/16 04:55:28;;;;;;;9.70;6.10;;;15.60;99.90;;;;;;5072331;28;20031;-76
2023/08/16 04:57:54;;;;;;;7.00;6.03;;;15.60;99.90;;;;;;5078037;28;20024;-78
2023/08/16 05:00:21;;;;;;;7.60;6.03;;;15.60;99.90;;;;;;5046251;28;20073;-77
2023/08/16 05:02:46;;;;;;;9.55;5.55;;;15.60;99.90;;;;;;5060779;28;20028;-77
2023/08/16 05:05:12;;;;;;;6.40;5.70;;;15.70;99.90;;;;;;5079411;28;20287;-77
2023/08/16 05:07:38;;;;;;;7.80;6.22;;;15.70;99.90;;;;;;5059249;28;20032;-80
2023/08/16 05:10:04;;;;;;;7.57;6.53;;;15.80;99.90;;;;;;5081389;28;20091;-79
2023/08/16 05:12:30;;;;;;;11.77;8.35;;;15.90;99.90;;;;;;5037595;28;20047;-78
2023/08/16 05:14:55;;;;;;;12.48;8.93;;;16.00;99.90;;;;;;5047308;28;20020;-79
2023/08/16 05:17:21;;;;;;;11.35;8.45;;;16.10;99.90;;;;;;5064236;28;20068;-78
2023/08/16 05:19:47;;;;;;;14.13;9.00;;;16.30;99.90;;;;;;5084070;28;20028;-80
2023/08/16 05:22:13;;;;;;;10.05;7.82;;;16.30;99.90;;;;;;5064018;28;20032;-79
2023/08/16 05:24:39;;;;;;;12.57;7.85;;;16.40;99.90;;;;;;5062162;28;20047;-78
2023/08/16 05:27:04;;;;;;;8.57;7.70;;;16.40;99.90;;;;;;5051773;28;20059;-78
2023/08/16 05:29:30;;;;;;;9.07;7.43;;;16.50;99.90;;;;;;5062354;28;20344;-80
2023/08/16 05:31:58;;;;;;;9.07;8.02;;;16.60;99.90;;;;;;5054302;28;20098;-79
2023/08/16 05:34:23;;;;;;;13.70;8.68;;;16.60;99.90;;;;;;5068195;28;20357;-80
2023/08/16 05:36:50;;;;;;;9.35;7.68;;;16.70;99.90;;;;;;5016555;28;20029;-79
2023/08/16 05:39:17;;;;;;;9.95;7.95;;;16.70;99.90;;;;;;5045137;28;20370;-79
2023/08/16 05:41:43;;;;;;;10.25;7.00;;;16.80;99.90;;;;;;5025526;28;20125;-79
2023/08/16 05:44:09;;;;;;;10.30;8.55;;;17.00;99.90;;;;;;5067300;28;20214;-79
2023/08/16 05:46:34;;;;;;;9.95;7.95;;;17.10;99.90;;;;;;5062111;28;20055;-81
2023/08/16 05:49:05;;;;;;;9.43;8.43;;;17.20;99.90;;;;;;5027946;28;20049;-79
2023/08/16 05:51:32;;;;;;;10.98;8.30;;;17.30;99.90;;;;;;5079508;28;20048;-78
2023/08/16 05:53:58;;;;;;;8.38;7.38;;;17.30;99.90;;;;;;5075171;28;20024;-79
2023/08/16 05:56:23;;;;;;;9.70;7.40;;;17.40;99.90;;;;;;5050978;28;20034;-80
2023/08/16 05:58:49;;;;;;;9.32;8.43;;;17.60;99.90;;;;;;5081272;28;20055;-78
2023/08/16 06:01:15;;;;;;;10.25;7.85;;;17.50;99.90;;;;;;5047651;28;20032;-76
2023/08/16 06:03:40;;;;;;;9.63;8.50;;;17.70;99.90;;;;;;5060002;28;20103;-78
2023/08/16 06:06:06;;;;;;;11.55;9.05;;;17.70;99.90;;;;;;5064284;28;20126;-76
2023/08/16 06:08:32;;;;;;;12.88;8.68;;;17.80;99.90;;;;;;5041492;28;20021;-78
2023/08/16 06:10:58;;;;;;;11.40;8.88;;;18.00;99.90;;;;;;5060115;28;20036;-76
2023/08/16 06:13:25;;;;;;;12.10;9.85;;;18.00;99.90;;;;;;5081345;28;20028;-78
2023/08/16 06:15:52;;;;;;;10.93;8.88;;;18.00;99.90;;;;;;5049703;28;20044;-76
2023/08/16 06:18:18;;;;;;;11.25;9.32;;;18.00;99.90;;;;;;5047305;28;20040;-77
2023/08/16 06:20:44;;;;;;;10.73;8.80;;;18.10;99.90;;;;;;5056473;28;20043;-77
2023/08/16 06:23:10;;;;;;;11.88;9.38;;;18.10;99.90;;;;;;5028300;28;20059;-78
2023/08/16 06:25:36;;;;;;;11.35;8.82;;;18.30;99.90;;;;;;5065298;28;20083;-79
2023/08/16 06:28:03;;;;;;;16.48;9.55;;;18.30;99.90;;;;;;5085476;28;20052;-80
2023/08/16 06:30:29;;;;;;;10.18;9.18;;;18.60;99.90;;;;;;5067344;28;20021;-79
2023/08/16 06:32:54;;;;;;;9.55;7.88;;;18.50;99.90;;;;;;5041988;28;20317;-79
2023/08/16 06:35:20;;;;;;;12.63;8.57;;;18.70;99.90;;;;;;5047098;28;20047;-78
2023/08/16 06:37:46;;;;;;;10.05;8.00;;;18.80;99.90;;;;;;5049039;28;20055;-79
2023/08/16 06:40:13;;;;;;;10.18;7.75;;;18.70;99.90;;;;;;5074985;28;20035;-79
2023/08/16 06:42:39;;;;;;;10.60;7.88;;;18.90;99.90;;;;;;5076819;28;20040;-79
2023/08/16 06:45:07;;;;;;;9.15;7.68;;;18.80;99.90;;;;;;5072896;28;20215;-78
2023/08/16 06:47:32;;;;;;;12.00;7.50;;;18.90;99.90;;;;;;5067052;28;20044;-79
2023/08/16 06:49:58;;;;;;;11.63;7.38;;;19.10;99.90;;;;;;5059050;28;20047;-80
2023/08/16 06:52:24;;;;;;;9.02;8.00;;;19.20;99.90;;;;;;5026870;28;20050;-80
2023/08/16 06:54:50;;;;;;;11.98;7.85;;;19.20;99.90;;;;;;5060060;28;20028;-78
2023/08/16 06:57:15;;;;;;;7.97;6.97;;;19.20;99.90;;;;;;5074759;28;20071;-79
2023/08/16 06:59:41;;;;;;;10.02;7.13;;;19.30;99.90;;;;;;5046033;28;20054;-78
2023/08/16 07:02:11;;;;;;;8.80;6.13;;;19.30;99.90;;;;;;5043963;28;20114;-79
2023/08/16 07:04:38;;;;;;;8.27;5.18;;;19.30;99.90;;;;;;5075738;28;20046;-80
2023/08/16 07:07:05;;;;;;;6.03;4.32;;;19.30;99.90;;;;;;5035639;28;20360;-78
2023/08/16 07:09:31;;;;;;;5.75;4.10;;;19.30;99.90;;;;;;5071291;28;20027;-78
2023/08/16 07:11:56;;;;;;;4.32;3.92;;;19.40;99.90;;;;;;5044739;28;20099;-79
2023/08/16 07:14:22;;;;;;;7.32;4.20;;;19.50;99.90;;;;;;5060767;28;20036;-78
2023/08/16 07:16:48;;;;;;;4.93;3.50;;;19.60;99.90;;;;;;5051024;28;20108;-79
2023/08/16 07:19:13;;;;;;;8.07;3.20;;;19.60;99.90;;;;;;5046836;28;20067;-80
2023/08/16 07:21:39;;;;;;;5.65;3.53;;;19.80;99.90;;;;;;5084021;28;20036;-79
2023/08/16 07:24:05;;;;;;;4.47;3.13;;;19.90;99.90;;;;;;5064385;28;20036;-78
2023/08/16 07:26:31;;;;;;;4.32;3.28;;;20.00;99.90;;;;;;5040490;28;20109;-79
2023/08/16 07:28:57;;;;;;;5.05;2.65;;;20.10;99.90;;;;;;5061679;28;20032;-78
2023/08/16 07:31:23;;;;;;;3.72;3.05;;;20.10;99.90;;;;;;5082582;28;20024;-78
2023/08/16 07:33:49;;;;;;;4.03;2.65;;;20.20;99.90;;;;;;5060957;28;20040;-78
2023/08/16 07:36:14;;;;;;;4.82;2.75;;;20.30;99.90;;;;;;5059426;28;20036;-78
2023/08/16 07:38:40;;;;;;;5.15;2.60;;;20.10;99.90;;;;;;5065390;28;20100;-78
2023/08/16 07:41:07;;;;;;;2.95;1.88;;;20.10;99.90;;;;;;5063576;28;20500;-78
2023/08/16 07:43:32;;;;;;;3.58;2.13;;;20.20;99.90;;;;;;5036129;28;20059;-77
2023/08/16 07:45:58;;;;;;;3.75;2.20;;;20.30;99.90;;;;;;5070748;28;20027;-77
2023/08/16 07:48:24;;;;;;;5.22;2.17;;;20.20;99.90;;;;;;5066990;28;20302;-76
2023/08/16 07:50:50;;;;;;;2.80;2.13;;;20.40;99.90;;;;;;5066983;28;20079;-77
2023/08/16 07:53:16;;;;;;;4.20;2.47;;;20.40;99.90;;;;;;5050681;28;20036;-77
2023/08/16 07:55:41;;;;;;;5.50;1.85;;;20.50;99.90;;;;;;5065638;28;20039;-77
2023/08/16 07:58:07;;;;;;;4.10;1.73;;;20.50;99.90;;;;;;5052341;28;20025;-80
2023/08/16 08:00:33;;;;;;;2.72;1.80;;;20.60;99.90;;;;;;5046854;28;20040;-77
2023/08/16 08:02:59;;;;;;;3.75;1.90;;;20.50;99.90;;;;;;5061321;28;20040;-77
2023/08/16 08:05:25;;;;;;;2.40;1.80;;;20.40;99.90;;;;;;5050423;28;20314;-79
2023/08/16 08:07:52;;;;;;;3.95;2.00;;;20.40;99.90;;;;;;5082867;28;20032;-77
2023/08/16 08:10:18;;;;;;;3.45;1.63;;;20.60;99.90;;;;;;5065524;28;20123;-78
2023/08/16 08:12:45;;;;;;;4.82;1.90;;;20.80;99.90;;;;;;5083119;28;20035;-78
2023/08/16 08:15:11;;;;;;;3.33;2.08;;;20.90;99.90;;;;;;5066751;28;20137;-77
2023/08/16 08:17:37;;;;;;;4.95;1.85;;;20.90;99.90;;;;;;5066481;28;20036;-80
2023/08/16 08:20:04;;;;;;;2.97;2.10;;;20.80;99.90;;;;;;5066077;28;20028;-76
2023/08/16 08:22:30;;;;;;;4.40;2.10;;;20.60;99.90;;;;;;5083320;28;20028;-77
2023/08/16 08:24:56;;;;;;;5.38;2.35;;;20.70;99.90;;;;;;5082294;28;20063;-78
2023/08/16 08:27:22;;;;;;;6.80;2.60;;;20.50;99.90;;;;;;5079651;28;20036;-78
2023/08/16 08:29:47;;;;;;;3.80;2.20;;;20.70;99.90;;;;;;5029738;28;20020;-77
2023/08/16 08:32:13;;;;;;;4.55;2.45;;;20.90;99.90;;;;;;5078764;28;20029;-77
2023/08/16 08:34:39;;;;;;;4.00;2.67;;;20.80;99.90;;;;;;5045558;28;20043;-78
2023/08/16 08:37:05;;;;;;;3.03;1.88;;;20.80;99.90;;;;;;5082851;28;20030;-77
2023/08/16 08:39:34;;;;;;;4.68;2.63;;;21.00;99.90;;;;;;5082838;28;20099;-77
2023/08/16 08:42:02;;;;;;;2.72;2.10;;;21.20;99.90;;;;;;5082725;28;20044;-76
2023/08/16 08:44:29;;;;;;;3.75;2.30;;;21.50;99.90;;;;;;5082425;28;20032;-77
2023/08/16 08:46:56;;;;;;;2.80;2.60;;;21.90;99.90;;;;;;5082478;28;20040;-77
2023/08/16 08:49:22;;;;;;;4.13;2.13;;;22.10;99.90;;;;;;5082974;28;20044;-78
2023/08/16 08:51:49;;;;;;;4.13;2.30;;;22.30;99.90;;;;;;5066077;28;20107;-78
2023/08/16 08:54:15;;;;;;;5.38;3.20;;;22.40;99.90;;;;;;5049135;28;20050;-78
2023/08/16 08:56:42;;;;;;;2.28;2.03;;;22.30;99.90;;;;;;5079700;28;20060;-79
2023/08/16 08:59:11;;;;;;;4.03;2.50;;;22.50;99.90;;;;;;5029523;28;20067;-76
2023/08/16 09:01:37;;;;;;;3.67;2.30;;;22.70;99.90;;;;;;5062580;28;20192;-77
2023/08/16 09:04:04;;;;;;;3.75;2.70;;;22.70;99.90;;;;;;5064231;28;20111;-76
2023/08/16 09:06:30;;;;;;;4.43;3.03;;;22.70;99.90;;;;;;5082435;28;20077;-76
2023/08/16 09:08:56;;;;;;;3.60;2.80;;;22.70;99.90;;;;;;5064820;28;20067;-75
2023/08/16 09:11:24;;;;;;;4.22;2.22;;;22.80;99.90;;;;;;5049448;28;20032;-76
2023/08/16 09:13:52;;;;;;;3.45;2.50;;;23.00;99.90;;;;;;5065385;28;20024;-75
2023/08/16 09:16:18;;;;;;;3.53;2.55;;;22.80;99.90;;;;;;5082621;28;20099;-76
2023/08/16 09:18:48;;;;;;;3.72;2.88;;;22.70;99.90;;;;;;5065995;28;20039;-76
2023/08/16 09:21:16;;;;;;;2.42;1.95;;;22.90;99.90;;;;;;5081861;28;20028;-75
2023/08/16 09:23:42;;;;;;;3.72;2.38;;;23.00;99.90;;;;;;5082419;28;20225;-75
2023/08/16 09:26:15;;;;;;;2.50;2.30;;;23.20;99.90;;;;;;5032728;28;20036;-76
2023/08/16 09:28:41;;;;;;;3.67;2.22;;;23.40;99.90;;;;;;5058932;28;20023;-76
2023/08/16 09:31:07;;;;;;;3.50;2.28;;;23.20;99.90;;;;;;5069673;28;20028;-75
2023/08/16 09:33:37;;;;;;;3.95;1.90;;;23.40;99.90;;;;;;5067995;28;20051;-75
2023/08/16 09:36:04;;;;;;;3.10;1.85;;;23.60;99.90;;;;;;5081790;28;20046;-75
2023/08/16 09:38:32;;;;;;;3.10;2.00;;;23.70;99.90;;;;;;5081247;28;20028;-76
2023/08/16 09:40:58;;;;;;;3.60;2.30;;;23.70;99.90;;;;;;5064903;28;20035;-75
2023/08/16 09:43:24;;;;;;;2.50;2.10;;;23.90;99.90;;;;;;5084563;28;20035;-76
2023/08/16 09:45:54;;;;;;;3.92;2.33;;;23.80;99.90;;;;;;5084350;28;20261;-76
2023/08/16 09:48:21;;;;;;;3.22;2.28;;;23.80;99.90;;;;;;5067762;28;20341;-76
2023/08/16 09:50:48;;;;;;;3.10;2.08;;;24.20;99.90;;;;;;5084548;28;20052;-76
2023/08/16 09:53:14;;;;;;;5.03;2.65;;;24.40;99.90;;;;;;5085161;28;20051;-75
2023/08/16 09:55:49;;;;;;;4.57;2.50;;;24.50;99.90;;;;;;5085053;28;20055;-76
2023/08/16 09:58:15;;;;;;;2.72;1.90;;;24.50;99.90;;;;;;5068778;28;20040;-75
2023/08/16 10:00:41;;;;;;;4.75;2.47;;;25.00;99.90;;;;;;5083865;28;20040;-76
2023/08/16 10:03:08;;;;;;;4.30;2.08;;;25.20;99.90;;;;;;5035025;28;20410;-76
2023/08/16 10:05:34;;;;;;;3.35;2.15;;;25.60;99.90;;;;;;5084451;28;20107;-75
2023/08/16 10:08:04;;;;;;;4.10;2.10;;;25.40;99.90;;;;;;5083752;28;20529;-75
2023/08/16 10:10:31;;;;;;;3.63;2.33;;;25.50;99.90;;;;;;5084854;28;20032;-75
2023/08/16 10:12:59;;;;;;;2.55;2.03;;;25.60;99.90;;;;;;5084924;28;20027;-76
2023/08/16 10:15:26;;;;;;;4.07;2.28;;;25.80;99.90;;;;;;5068241;28;20104;-76
2023/08/16 10:17:53;;;;;;;3.83;2.00;;;25.80;99.90;;;;;;5084142;28;20475;-75
2023/08/16 10:20:24;;;;;;;3.53;2.33;;;25.40;99.90;;;;;;5084915;28;20032;-76
2023/08/16 10:23:05;;;;;;;5.75;2.22;;;25.80;99.90;;;;;;5084109;28;20089;-76
2023/08/16 10:25:51;;;;;;;3.50;2.15;;;25.60;99.90;;;;;;5068748;28;20103;-75
2023/08/16 10:28:19;;;;;;;3.13;2.25;;;26.00;99.90;;;;;;5084709;28;20111;-76
2023/08/16 10:30:50;;;;;;;5.10;2.17;;;24.70;99.90;;;;;;5084580;28;20024;-76
2023/08/16 10:33:26;;;;;;;5.57;2.20;;;25.50;99.90;;;;;;5067384;28;20036;-76
2023/08/16 10:35:53;;;;;;;2.50;1.65;;;25.90;99.90;;;;;;5067137;28;20020;-76
2023/08/16 10:38:19;;;;;;;3.55;2.10;;;26.50;99.90;;;;;;5067773;28;20031;-75
2023/08/16 10:40:57;;;;;;;3.60;2.20;;;26.00;99.90;;;;;;5084194;28;20153;-76
2023/08/16 10:43:36;;;;;;;2.67;1.90;;;26.00;99.90;;;;;;5067825;28;20106;-74
2023/08/16 10:46:02;;;;;;;3.05;1.92;;;26.20;99.90;;;;;;5066811;28;20044;-73
2023/08/16 10:48:36;;;;;;;2.97;2.60;;;26.70;99.90;;;;;;5067403;28;20078;-73
2023/08/16 10:51:02;;;;;;;;;;;26.70;99.90;;;;;;5067613;28;20043;-73
2023/08/16 10:53:28;;;;;;;2.90;2.13;;;26.00;99.90;;;;;;5083324;28;19916;-74
2023/08/16 10:55:55;;;;;;;3.35;1.95;;;25.70;99.90;;;;;;5067091;28;20046;-73
2023/08/16 10:58:25;;;;;;;4.25;2.47;;;26.30;99.90;;;;;;5091420;28;20048;-73
2023/08/16 11:00:58;;;;;;;2.20;2.00;;;25.60;99.90;;;;;;5067081;28;20316;-73
2023/08/16 11:03:34;;;;;;;2.97;2.25;;;26.30;99.90;;;;;;5083561;28;20035;-73
2023/08/16 11:06:06;;;;;;;4.03;2.08;;;26.20;99.90;;;;;;5066961;28;20218;-73
2023/08/16 11:08:32;;;;;;;4.63;2.80;;;26.90;99.90;;;;;;5067512;28;20180;-74
2023/08/16 11:11:01;;;;;;;6.40;2.67;;;25.60;99.90;;;;;;5066721;28;20103;-73
2023/08/16 11:13:28;;;;;;;3.75;2.35;;;25.50;99.90;;;;;;5083311;28;20038;-73
2023/08/16 11:15:57;;;;;;;2.78;2.20;;;26.40;99.90;;;;;;5067083;28;20024;-74
2023/08/16 11:18:30;;;;;;;3.15;2.00;;;25.80;99.90;;;;;;5084141;28;20110;-74
2023/08/16 11:21:00;;;;;;;3.55;2.15;;;26.10;99.90;;;;;;5066121;28;20042;-73
2023/08/16 11:23:35;;;;;;;2.33;1.98;;;25.80;99.90;;;;;;5082867;28;20099;-74
2023/08/16 11:26:02;;;;;;;3.63;2.10;;;25.90;99.90;;;;;;5083465;28;20027;-73
2023/08/16 11:28:33;;;;;;;3.63;1.60;;;26.30;99.90;;;;;;5083533;28;20040;-74
2023/08/16 11:31:00;;;;;;;3.00;2.28;;;26.70;99.90;;;;;;5050186;28;20032;-74
2023/08/16 11:33:55;;;;;;;3.00;2.13;;;26.20;99.90;;;;;;5066784;28;20214;-74
2023/08/16 11:36:21;;;;;;;3.28;2.00;;;26.60;99.90;;;;;;5045604;28;20173;-73
2023/08/16 11:38:49;;;;;;;2.58;1.67;;;26.60;99.90;;;;;;5067137;28;20467;-74
2023/08/16 11:41:18;;;;;;;2.88;1.77;;;26.20;99.90;;;;;;5066822;28;20028;-74
2023/08/16 11:43:44;;;;;;;1.60;1.40;;;26.20;99.90;;;;;;5066730;28;20040;-74
2023/08/16 11:46:10;;;;;;;3.10;1.70;;;26.30;99.90;;;;;;5083244;28;20276;-74
2023/08/16 11:48:36;;;;;;;5.13;1.73;;;26.40;99.90;;;;;;5083449;28;20027;-74
2023/08/16 11:51:03;;;;;;;3.58;1.58;;;26.40;99.90;;;;;;5079435;28;20056;-74
2023/08/16 11:53:36;;;;;;;2.78;1.52;;;27.00;99.90;;;;;;5079538;28;20074;-73
2023/08/16 11:56:08;;;;;;;1.67;1.43;;;26.70;99.90;;;;;;5082584;28;20024;-74
2023/08/16 11:58:48;;;;;;;24.63;3.00;;;25.80;99.90;;;;;;5064866;28;20421;-74
2023/08/16 12:01:14;;;;;;;3.75;2.03;;;26.40;99.90;;;;;;5081921;28;20039;-74
2023/08/16 12:03:44;;;;;;;1.67;1.58;;;26.60;99.90;;;;;;5083406;28;20089;-74
2023/08/16 12:06:11;;;;;;;2.40;1.67;;;25.90;99.90;;;;;;5081927;28;20050;-74
2023/08/16 12:08:47;;;;;;;2.05;1.50;;;26.70;99.90;;;;;;5063929;28;20029;-73
2023/08/16 12:11:13;;;;;;;3.38;1.98;;;26.40;1.00;;;;;;5066335;28;20028;-74
2023/08/16 12:13:38;;;;;;;3.40;1.42;;;26.10;99.90;;;;;;5033068;28;20020;-74
2023/08/16 12:16:05;;;;;;;2.72;1.40;;;25.90;99.90;;;;;;5065994;28;20028;-76
2023/08/16 12:18:31;;;;;;;2.67;1.52;;;26.30;99.90;;;;;;5045915;28;20051;-74
2023/08/16 12:20:58;;;;;;;2.50;1.30;;;25.90;88.10;;;;;;5082580;28;20032;-73
2023/08/16 12:23:24;;;;;;;2.22;1.52;;;26.00;40.80;;;;;;5079692;28;20029;-74
2023/08/16 12:25:49;;;;;;;4.28;1.27;;;26.40;1.00;;;;;;5049768;28;20098;-74
2023/08/16 12:28:15;;;;;;;2.95;1.10;;;26.50;1.00;;;;;;5082466;28;20047;-74
2023/08/16 12:30:41;;;;;;;2.63;1.20;;;26.10;99.90;;;;;;5083582;28;20318;-73
2023/08/16 12:33:06;;;;;;;2.28;1.30;;;26.10;1.00;;;;;;5082845;28;20040;-73
2023/08/16 12:35:34;;;;;;;1.00;0.90;;;26.20;1.00;;;;;;5032326;28;20070;-74
2023/08/16 12:38:02;;;;;;;1.75;0.80;;;25.80;1.00;;;;;;5081754;28;20031;-74
2023/08/16 12:40:29;;;;;;;1.63;1.10;;;26.00;1.00;;;;;;5082829;28;20040;-74
2023/08/16 12:42:56;;;;;;;2.13;1.13;;;26.00;99.90;;;;;;5049213;28;20036;-73
2023/08/16 12:45:21;;;;;;;1.63;0.73;;;26.40;1.00;;;;;;5065960;28;20067;-73